Time;durP1;ratioP1;P1;durP2;ratioP2;P2;SDS_P1;SDS_P2;PMS_P1;PMS_P2;Temp;Humidity;BMP_temperature;BMP_pressure;BME280_temperature;BME280_humidity;BME280_pressure;Samples;Min_cycle;Max_cycle;Signal;HPM_P1;HPM_P2
2023/07/24 00:01:27;;;;;;;2.87;1.70;;;21.00;99.90;;;;;;4205687;28;20240;-80
2023/07/24 00:03:29;;;;;;;3.67;1.67;;;20.90;99.90;;;;;;4204204;28;20593;-80
2023/07/24 00:05:31;;;;;;;2.57;1.57;;;20.90;99.90;;;;;;4209330;28;21081;-79
2023/07/24 00:07:32;;;;;;;2.20;1.80;;;20.90;99.90;;;;;;4207577;28;20217;-79
2023/07/24 00:09:34;;;;;;;2.13;1.40;;;20.90;99.90;;;;;;4205379;28;20198;-80
2023/07/24 00:11:36;;;;;;;2.40;1.43;;;20.90;99.90;;;;;;4202068;28;20260;-80
2023/07/24 00:13:38;;;;;;;2.57;1.60;;;20.80;99.90;;;;;;4206772;28;20210;-81
2023/07/24 00:15:40;;;;;;;2.33;1.63;;;20.80;99.90;;;;;;4208458;28;20291;-81
2023/07/24 00:17:44;;;;;;;3.83;1.80;;;20.80;99.90;;;;;;4211697;28;20242;-80
2023/07/24 00:19:46;;;;;;;3.13;1.63;;;20.80;99.90;;;;;;4207534;28;20215;-81
2023/07/24 00:21:48;;;;;;;3.60;1.70;;;20.80;99.90;;;;;;4203248;28;20274;-80
2023/07/24 00:23:50;;;;;;;3.17;1.80;;;20.80;99.90;;;;;;4206134;28;20647;-80
2023/07/24 00:25:53;;;;;;;1.60;1.40;;;20.80;99.90;;;;;;4205375;28;20251;-81
2023/07/24 00:27:55;;;;;;;2.27;1.40;;;20.70;99.90;;;;;;4207380;28;20206;-79
2023/07/24 00:29:55;;;;;;;2.90;1.50;;;20.70;99.90;;;;;;4208906;28;20209;-81
2023/07/24 00:31:57;;;;;;;4.20;1.97;;;20.70;99.90;;;;;;4205730;28;20224;-79
2023/07/24 00:34:01;;;;;;;1.90;1.40;;;20.70;99.90;;;;;;4204015;28;20240;-80
2023/07/24 00:36:03;;;;;;;1.97;1.40;;;20.70;99.90;;;;;;4208014;28;20228;-81
2023/07/24 00:38:05;;;;;;;2.53;1.57;;;20.60;99.90;;;;;;4205415;28;20217;-81
2023/07/24 00:40:08;;;;;;;2.50;1.70;;;20.60;99.90;;;;;;4207816;28;20278;-81
2023/07/24 00:42:10;;;;;;;2.60;1.80;;;20.60;99.90;;;;;;4205036;28;20209;-79
2023/07/24 00:44:12;;;;;;;3.80;1.73;;;20.60;99.90;;;;;;4207557;28;20307;-81
2023/07/24 00:46:15;;;;;;;3.73;1.60;;;20.60;99.90;;;;;;4206802;28;20233;-79
2023/07/24 00:48:17;;;;;;;5.63;1.80;;;20.60;99.90;;;;;;4209869;28;20212;-80
2023/07/24 00:50:21;;;;;;;2.13;1.60;;;20.50;99.90;;;;;;4212987;28;20678;-81
2023/07/24 00:52:23;;;;;;;2.40;1.63;;;20.50;99.90;;;;;;4211096;28;20439;-78
2023/07/24 00:54:25;;;;;;;3.67;1.50;;;20.50;99.90;;;;;;4209979;28;20213;-81
2023/07/24 00:56:28;;;;;;;2.80;1.70;;;20.50;99.90;;;;;;4208276;28;20242;-81
2023/07/24 00:58:30;;;;;;;2.70;1.73;;;20.50;99.90;;;;;;4209268;28;20225;-81
2023/07/24 01:00:33;;;;;;;2.43;1.57;;;20.50;99.90;;;;;;4208614;28;20282;-80
2023/07/24 01:02:36;;;;;;;3.93;1.80;;;20.50;99.90;;;;;;4210503;28;20213;-81
2023/07/24 01:04:38;;;;;;;3.83;1.67;;;20.40;99.90;;;;;;4210406;28;20236;-81
2023/07/24 01:06:42;;;;;;;2.87;1.80;;;20.50;99.90;;;;;;4209972;28;20230;-81
2023/07/24 01:08:44;;;;;;;2.27;1.60;;;20.50;99.90;;;;;;4209158;28;20220;-80
2023/07/24 01:10:46;;;;;;;1.70;1.40;;;20.50;99.90;;;;;;4208179;28;20306;-81
2023/07/24 01:12:57;;;;;;;3.13;1.97;;;20.50;99.90;;;;;;4214760;28;20210;-79
2023/07/24 01:15:08;;;;;;;3.53;1.90;;;20.50;99.90;;;;;;4213182;28;20210;-81
2023/07/24 01:17:13;;;;;;;4.30;1.73;;;20.40;99.90;;;;;;4212314;22;21033;-75
2023/07/24 01:19:31;;;;;;;2.27;1.70;;;20.40;99.90;;;;;;4183639;28;20240;-76
2023/07/24 01:21:44;;;;;;;2.80;1.90;;;20.40;99.90;;;;;;4191130;28;20317;-75
2023/07/24 01:23:58;;;;;;;3.47;1.50;;;20.40;99.90;;;;;;4191110;28;20305;-75
2023/07/24 01:26:03;;;;;;;2.03;1.50;;;20.40;99.90;;;;;;4186594;28;20255;-76
2023/07/24 01:28:08;;;;;;;3.83;1.67;;;20.40;99.90;;;;;;4186529;28;20233;-75
2023/07/24 01:30:11;;;;;;;2.33;1.53;;;20.40;99.90;;;;;;4191865;28;20218;-76
2023/07/24 01:32:11;;;;;;;2.50;1.60;;;20.40;99.90;;;;;;4198040;28;20330;-75
2023/07/24 01:34:13;;;;;;;2.27;1.80;;;20.40;99.90;;;;;;4197365;28;20202;-75
2023/07/24 01:36:16;;;;;;;2.20;1.43;;;20.40;99.90;;;;;;4188281;28;20936;-75
2023/07/24 01:38:18;;;;;;;1.80;1.47;;;20.40;99.90;;;;;;4196764;28;20285;-76
2023/07/24 01:40:21;;;;;;;2.73;1.67;;;20.40;99.90;;;;;;4196515;28;20627;-75
2023/07/24 01:42:24;;;;;;;2.00;1.50;;;20.40;99.90;;;;;;4194171;28;20241;-76
2023/07/24 01:44:26;;;;;;;2.90;1.67;;;20.40;99.90;;;;;;4199358;28;20248;-76
2023/07/24 01:46:28;;;;;;;3.43;1.83;;;20.30;99.90;;;;;;4197089;28;20316;-75
2023/07/24 01:48:30;;;;;;;2.83;1.87;;;20.30;99.90;;;;;;4187928;28;20301;-75
2023/07/24 01:50:31;;;;;;;3.40;1.57;;;20.30;99.90;;;;;;4197596;28;20510;-75
2023/07/24 01:52:33;;;;;;;2.40;1.80;;;20.30;99.90;;;;;;4189152;28;20725;-76
2023/07/24 01:54:35;;;;;;;3.20;1.60;;;20.30;99.90;;;;;;4194949;28;20206;-75
2023/07/24 01:56:39;;;;;;;2.20;1.50;;;20.30;99.90;;;;;;4189490;28;20256;-76
2023/07/24 01:58:41;;;;;;;3.37;2.00;;;20.30;99.90;;;;;;4188710;28;20645;-75
2023/07/24 02:00:44;;;;;;;3.50;1.93;;;20.30;99.90;;;;;;4188299;28;20684;-75
2023/07/24 02:02:45;;;;;;;2.90;1.80;;;20.30;99.90;;;;;;4192172;28;20292;-77
2023/07/24 02:04:47;;;;;;;3.27;1.80;;;20.20;99.90;;;;;;4190440;28;20194;-75
2023/07/24 02:06:49;;;;;;;2.70;1.83;;;20.20;99.90;;;;;;4187784;28;20235;-75
2023/07/24 02:08:51;;;;;;;1.90;1.57;;;20.20;99.90;;;;;;4187113;28;20222;-75
2023/07/24 02:10:53;;;;;;;2.97;1.77;;;20.20;99.90;;;;;;4192769;28;20664;-76
2023/07/24 02:12:55;;;;;;;2.30;1.83;;;20.20;99.90;;;;;;4191750;28;20248;-76
2023/07/24 02:14:59;;;;;;;3.23;1.73;;;20.20;99.90;;;;;;4196371;28;20245;-75
2023/07/24 02:17:01;;;;;;;2.80;1.87;;;20.20;99.90;;;;;;4195574;28;20233;-75
2023/07/24 02:19:03;;;;;;;1.57;1.40;;;20.20;99.90;;;;;;4196299;28;20301;-75
2023/07/24 02:21:05;;;;;;;4.23;1.87;;;20.20;99.90;;;;;;4194081;28;20248;-75
2023/07/24 02:23:08;;;;;;;2.93;1.60;;;20.10;99.90;;;;;;4204637;28;20206;-75
2023/07/24 02:25:10;;;;;;;3.57;1.73;;;20.10;99.90;;;;;;4192504;28;20220;-75
2023/07/24 02:27:13;;;;;;;3.03;2.10;;;20.10;99.90;;;;;;4191369;28;20234;-75
2023/07/24 02:29:15;;;;;;;8.30;5.20;;;20.10;99.90;;;;;;4193059;28;20284;-75
2023/07/24 02:31:19;;;;;;;6.27;3.63;;;20.00;99.90;;;;;;4195630;28;20194;-77
2023/07/24 02:33:20;;;;;;;4.50;2.80;;;20.00;99.90;;;;;;4188739;28;20667;-76
2023/07/24 02:35:22;;;;;;;4.13;2.33;;;20.00;99.90;;;;;;4197143;28;20682;-76
2023/07/24 02:37:24;;;;;;;5.20;2.30;;;19.90;99.90;;;;;;4185625;28;20814;-75
2023/07/24 02:39:26;;;;;;;6.13;2.20;;;19.90;99.90;;;;;;4192347;28;20308;-76
2023/07/24 02:41:28;;;;;;;4.87;2.20;;;19.90;99.90;;;;;;4200227;28;20805;-77
2023/07/24 02:43:30;;;;;;;4.47;2.30;;;19.90;99.90;;;;;;4196061;28;20735;-76
2023/07/24 02:45:35;;;;;;;3.50;2.30;;;19.90;99.90;;;;;;4189787;28;20244;-75
2023/07/24 02:47:38;;;;;;;6.73;2.63;;;19.90;99.90;;;;;;4197924;28;20209;-76
2023/07/24 02:49:40;;;;;;;3.83;2.53;;;19.80;99.90;;;;;;4184155;28;20202;-75
2023/07/24 02:51:42;;;;;;;4.60;2.63;;;19.80;99.90;;;;;;4192784;28;20686;-75
2023/07/24 02:53:44;;;;;;;4.17;2.33;;;19.80;99.90;;;;;;4210556;28;20209;-75
2023/07/24 02:55:46;;;;;;;4.20;2.50;;;19.80;99.90;;;;;;4188661;28;20252;-75
2023/07/24 02:57:47;;;;;;;4.83;2.67;;;19.80;99.90;;;;;;4196355;28;20212;-75
2023/07/24 02:59:49;;;;;;;6.40;3.00;;;19.80;99.90;;;;;;4196216;28;20209;-75
2023/07/24 03:01:51;;;;;;;5.63;2.60;;;19.80;99.90;;;;;;4197072;28;20316;-75
2023/07/24 03:03:55;;;;;;;3.87;2.43;;;19.80;99.90;;;;;;4192593;28;20236;-76
2023/07/24 03:05:57;;;;;;;6.27;2.70;;;19.70;99.90;;;;;;4193488;28;20259;-75
2023/07/24 03:07:58;;;;;;;4.83;2.90;;;19.70;99.90;;;;;;4191935;28;20241;-75
2023/07/24 03:10:00;;;;;;;4.77;2.53;;;19.70;99.90;;;;;;4190424;28;20221;-75
2023/07/24 03:12:01;;;;;;;6.47;2.23;;;19.60;99.90;;;;;;4189415;28;20220;-75
2023/07/24 03:14:03;;;;;;;4.40;2.73;;;19.60;99.90;;;;;;4182821;28;20202;-76
2023/07/24 03:16:05;;;;;;;5.30;2.60;;;19.60;99.90;;;;;;4186290;28;20364;-75
2023/07/24 03:18:08;;;;;;;6.17;2.70;;;19.60;99.90;;;;;;4190250;28;20217;-75
2023/07/24 03:20:15;;;;;;;4.33;2.37;;;19.60;99.90;;;;;;4189911;28;20300;-77
2023/07/24 03:22:17;;;;;;;3.90;2.37;;;19.60;99.90;;;;;;4187984;28;20984;-75
2023/07/24 03:24:19;;;;;;;7.23;3.20;;;19.60;99.90;;;;;;4188947;28;20307;-75
2023/07/24 03:26:21;;;;;;;4.40;2.67;;;19.60;99.90;;;;;;4186342;28;20234;-75
2023/07/24 03:28:23;;;;;;;6.23;2.80;;;19.60;99.90;;;;;;4189205;28;20304;-75
2023/07/24 03:30:25;;;;;;;5.87;2.53;;;19.50;99.90;;;;;;4192384;28;20240;-75
2023/07/24 03:32:27;;;;;;;5.70;2.80;;;19.60;99.90;;;;;;4187652;28;20209;-75
2023/07/24 03:34:29;;;;;;;4.83;2.90;;;19.60;99.90;;;;;;4191477;28;20216;-75
2023/07/24 03:36:33;;;;;;;6.70;3.07;;;19.60;99.90;;;;;;4183784;28;20269;-75
2023/07/24 03:38:35;;;;;;;5.73;2.90;;;19.60;99.90;;;;;;4195345;28;20368;-75
2023/07/24 03:40:37;;;;;;;4.53;2.93;;;19.60;99.90;;;;;;4195704;28;20212;-75
2023/07/24 03:42:39;;;;;;;4.80;3.07;;;19.60;99.90;;;;;;4195351;28;20324;-76
2023/07/24 03:44:41;;;;;;;5.40;3.10;;;19.60;99.90;;;;;;4194026;28;20233;-75
2023/07/24 03:46:43;;;;;;;5.80;3.00;;;19.50;99.90;;;;;;4194997;28;20228;-75
2023/07/24 03:48:44;;;;;;;5.23;2.60;;;19.60;99.90;;;;;;4179292;28;20692;-76
2023/07/24 03:50:45;;;;;;;5.20;2.90;;;19.60;99.90;;;;;;4194113;28;20213;-76
2023/07/24 03:52:49;;;;;;;5.47;3.20;;;19.50;99.90;;;;;;4194076;28;20194;-75
2023/07/24 03:54:51;;;;;;;7.23;3.00;;;19.60;99.90;;;;;;4193379;28;20314;-75
2023/07/24 03:56:53;;;;;;;7.10;3.20;;;19.60;99.90;;;;;;4194114;28;20260;-75
2023/07/24 03:58:55;;;;;;;4.60;2.70;;;19.60;99.90;;;;;;4196251;28;20709;-75
2023/07/24 04:00:57;;;;;;;4.63;2.80;;;19.60;99.90;;;;;;4194552;28;20198;-76
2023/07/24 04:02:59;;;;;;;4.00;2.60;;;19.60;99.90;;;;;;4195425;28;20297;-76
2023/07/24 04:05:00;;;;;;;4.47;2.90;;;19.60;99.90;;;;;;4188875;28;20248;-76
2023/07/24 04:07:02;;;;;;;5.37;2.67;;;19.60;99.90;;;;;;4190858;28;20220;-75
2023/07/24 04:09:05;;;;;;;6.23;2.80;;;19.60;99.90;;;;;;4195187;28;20210;-75
2023/07/24 04:11:07;;;;;;;5.50;2.80;;;19.60;99.90;;;;;;4185532;28;20677;-77
2023/07/24 04:13:08;;;;;;;4.47;3.10;;;19.60;99.90;;;;;;4187387;28;20217;-76
2023/07/24 04:15:10;;;;;;;4.37;2.57;;;19.60;99.90;;;;;;4189815;28;20217;-75
2023/07/24 04:17:12;;;;;;;4.57;2.73;;;19.60;99.90;;;;;;4188849;28;20237;-75
2023/07/24 04:19:14;;;;;;;4.07;2.63;;;19.60;99.90;;;;;;4195645;28;20236;-75
2023/07/24 04:21:16;;;;;;;4.33;2.90;;;19.60;99.90;;;;;;4192009;28;20297;-75
2023/07/24 04:23:18;;;;;;;4.30;2.73;;;19.60;99.90;;;;;;4192072;28;20214;-75
2023/07/24 04:25:21;;;;;;;3.57;2.80;;;19.60;99.90;;;;;;4199652;28;20252;-76
2023/07/24 04:27:22;;;;;;;7.50;3.03;;;19.60;99.90;;;;;;4182784;28;20305;-75
2023/07/24 04:29:25;;;;;;;6.93;3.70;;;19.60;99.90;;;;;;4193373;28;20663;-76
2023/07/24 04:31:27;;;;;;;5.67;3.93;;;19.70;99.90;;;;;;4198689;28;20212;-75
2023/07/24 04:33:29;;;;;;;6.67;3.90;;;19.70;99.90;;;;;;4194697;28;20686;-75
2023/07/24 04:35:30;;;;;;;5.67;3.53;;;19.70;99.90;;;;;;4196602;28;20236;-76
2023/07/24 04:37:32;;;;;;;6.33;2.90;;;19.70;99.90;;;;;;4189087;28;20207;-77
2023/07/24 04:39:34;;;;;;;4.03;2.90;;;19.70;99.90;;;;;;4194869;28;20564;-77
2023/07/24 04:41:37;;;;;;;6.47;3.10;;;19.70;99.90;;;;;;4195565;28;20237;-75
2023/07/24 04:43:39;;;;;;;4.30;2.70;;;19.70;99.90;;;;;;4191484;28;20198;-76
2023/07/24 04:45:41;;;;;;;3.93;2.73;;;19.70;99.90;;;;;;4194495;28;20687;-75
2023/07/24 04:47:43;;;;;;;5.07;2.83;;;19.70;99.90;;;;;;4190761;28;20214;-76
2023/07/24 04:49:45;;;;;;;4.37;2.80;;;19.70;99.90;;;;;;4196441;28;20206;-76
2023/07/24 04:51:47;;;;;;;5.47;3.03;;;19.80;99.90;;;;;;4188743;28;20213;-76
2023/07/24 04:53:49;;;;;;;4.33;3.00;;;19.80;99.90;;;;;;4194313;28;20249;-76
2023/07/24 04:55:51;;;;;;;4.13;2.70;;;19.70;99.90;;;;;;4193638;28;20240;-76
2023/07/24 04:57:54;;;;;;;4.70;2.70;;;19.80;99.90;;;;;;4194369;28;20988;-77
2023/07/24 04:59:56;;;;;;;4.37;3.00;;;19.80;99.90;;;;;;4194122;28;20296;-76
2023/07/24 05:01:58;;;;;;;5.90;3.13;;;19.80;99.90;;;;;;4194749;28;20746;-76
2023/07/24 05:04:00;;;;;;;4.87;2.70;;;19.90;99.90;;;;;;4198250;28;20260;-75
2023/07/24 05:06:01;;;;;;;4.10;2.80;;;19.90;99.90;;;;;;4196166;28;20264;-75
2023/07/24 05:08:03;;;;;;;6.33;2.90;;;19.90;99.90;;;;;;4189036;28;20190;-75
2023/07/24 05:10:05;;;;;;;4.23;3.00;;;20.00;99.90;;;;;;4182507;28;20209;-76
2023/07/24 05:12:08;;;;;;;5.33;3.23;;;20.00;99.90;;;;;;4187438;28;20212;-76
2023/07/24 05:14:11;;;;;;;4.63;2.93;;;20.10;99.90;;;;;;4187657;28;20891;-75
2023/07/24 05:16:13;;;;;;;5.10;2.70;;;20.10;99.90;;;;;;4186251;28;20750;-75
2023/07/24 05:18:15;;;;;;;5.50;3.13;;;20.20;99.90;;;;;;4193195;28;20581;-75
2023/07/24 05:20:17;;;;;;;4.77;3.20;;;20.30;99.90;;;;;;4192683;28;20209;-75
2023/07/24 05:22:19;;;;;;;6.03;3.77;;;20.30;99.90;;;;;;4188645;28;20254;-75
2023/07/24 05:24:21;;;;;;;4.50;3.30;;;20.40;99.90;;;;;;4192357;28;20297;-75
2023/07/24 05:26:23;;;;;;;4.23;3.03;;;20.50;99.90;;;;;;4185670;28;20325;-75
2023/07/24 05:28:25;;;;;;;4.67;3.20;;;20.60;99.90;;;;;;4197030;28;20210;-75
2023/07/24 05:30:29;;;;;;;7.93;5.33;;;20.60;99.90;;;;;;4192883;28;20214;-75
2023/07/24 05:32:30;;;;;;;9.23;5.47;;;20.60;99.90;;;;;;4188143;28;20229;-75
2023/07/24 05:34:32;;;;;;;5.90;3.20;;;20.70;99.90;;;;;;4184315;28;20305;-75
2023/07/24 05:36:34;;;;;;;4.13;2.90;;;20.70;99.90;;;;;;4189128;28;20642;-74
2023/07/24 05:38:36;;;;;;;4.93;2.83;;;20.70;99.90;;;;;;4191701;28;20214;-75
2023/07/24 05:40:38;;;;;;;5.83;2.90;;;20.80;99.90;;;;;;4192568;28;20215;-76
2023/07/24 05:42:43;;;;;;;5.97;3.07;;;20.80;99.90;;;;;;4185650;28;20217;-76
2023/07/24 05:44:47;;;;;;;4.40;2.57;;;20.80;99.90;;;;;;4192504;28;20973;-75
2023/07/24 05:46:51;;;;;;;5.20;2.77;;;20.80;99.90;;;;;;4197178;28;20830;-75
2023/07/24 05:48:56;;;;;;;5.60;2.87;;;20.80;99.90;;;;;;4187824;28;20221;-76
2023/07/24 05:50:58;;;;;;;5.77;2.67;;;20.80;99.90;;;;;;4186590;28;20633;-75
2023/07/24 05:53:00;;;;;;;4.47;3.10;;;20.80;99.90;;;;;;4193407;28;20237;-75
2023/07/24 05:55:02;;;;;;;5.73;3.10;;;20.90;99.90;;;;;;4193689;28;20220;-75
2023/07/24 05:57:05;;;;;;;6.20;3.40;;;20.90;99.90;;;;;;4189980;28;20262;-76
2023/07/24 05:59:07;;;;;;;6.80;3.00;;;20.90;99.90;;;;;;4195712;28;20297;-76
2023/07/24 06:01:10;;;;;;;4.73;3.00;;;21.00;99.90;;;;;;4190710;28;20747;-76
2023/07/24 06:03:13;;;;;;;6.30;3.07;;;21.00;99.90;;;;;;4194378;28;20230;-75
2023/07/24 06:05:15;;;;;;;6.07;3.00;;;21.10;99.90;;;;;;4180727;28;20234;-76
2023/07/24 06:07:17;;;;;;;5.20;3.37;;;21.10;99.90;;;;;;4190445;28;20231;-76
2023/07/24 06:09:19;;;;;;;5.17;2.93;;;21.20;99.90;;;;;;4193937;28;20207;-75
2023/07/24 06:11:20;;;;;;;4.80;3.00;;;21.30;99.90;;;;;;4192196;28;20216;-75
2023/07/24 06:13:22;;;;;;;5.70;3.00;;;21.30;99.90;;;;;;4183695;28;20300;-75
2023/07/24 06:15:24;;;;;;;5.80;3.60;;;21.40;99.90;;;;;;4196794;28;20398;-75
2023/07/24 06:17:26;;;;;;;5.20;3.10;;;21.40;99.90;;;;;;4192951;28;20234;-75
2023/07/24 06:19:29;;;;;;;5.83;3.10;;;21.50;99.90;;;;;;4196724;28;20641;-76
2023/07/24 06:21:31;;;;;;;5.10;2.90;;;21.40;99.90;;;;;;4196914;28;20249;-76
2023/07/24 06:23:33;;;;;;;4.50;2.67;;;21.60;99.90;;;;;;4188011;28;20234;-75
2023/07/24 06:25:35;;;;;;;6.50;3.10;;;21.70;99.90;;;;;;4190182;28;20218;-75
2023/07/24 06:27:37;;;;;;;4.60;3.00;;;21.70;99.90;;;;;;4191225;28;20645;-75
2023/07/24 06:29:39;;;;;;;7.87;3.50;;;21.80;99.90;;;;;;4190692;28;20301;-75
2023/07/24 06:31:40;;;;;;;4.73;2.90;;;21.90;99.90;;;;;;4192857;28;20251;-75
2023/07/24 06:33:42;;;;;;;5.33;3.10;;;21.90;99.90;;;;;;4188385;28;20205;-75
2023/07/24 06:35:45;;;;;;;5.63;3.17;;;22.00;99.90;;;;;;4202453;28;20294;-76
2023/07/24 06:37:47;;;;;;;4.93;3.07;;;22.10;99.90;;;;;;4188115;28;20724;-75
2023/07/24 06:39:49;;;;;;;4.97;3.13;;;22.20;99.90;;;;;;4193811;28;20224;-75
2023/07/24 06:41:53;;;;;;;5.97;3.13;;;22.30;99.90;;;;;;4193987;28;20207;-76
2023/07/24 06:43:54;;;;;;;4.57;3.00;;;22.30;99.90;;;;;;4191997;28;20261;-75
2023/07/24 06:45:56;;;;;;;6.90;2.97;;;22.40;99.90;;;;;;4183839;28;20232;-76
2023/07/24 06:47:58;;;;;;;4.87;3.20;;;22.50;99.90;;;;;;4195289;28;20744;-76
2023/07/24 06:50:01;;;;;;;5.53;3.30;;;22.60;99.90;;;;;;4191724;28;20222;-75
2023/07/24 06:52:05;;;;;;;5.87;3.50;;;22.60;99.90;;;;;;4185570;28;20586;-75
2023/07/24 06:54:07;;;;;;;6.23;3.30;;;22.70;99.90;;;;;;4193562;28;20227;-75
2023/07/24 06:56:09;;;;;;;5.87;3.07;;;22.70;99.90;;;;;;4187086;28;20713;-75
2023/07/24 06:58:11;;;;;;;6.90;3.33;;;22.80;99.90;;;;;;4189938;28;20739;-75
2023/07/24 07:00:14;;;;;;;5.70;3.20;;;22.90;99.90;;;;;;4190126;28;20307;-75
2023/07/24 07:02:16;;;;;;;5.90;3.43;;;23.00;99.90;;;;;;4191618;28;20249;-76
2023/07/24 07:04:18;;;;;;;6.93;3.33;;;23.10;99.90;;;;;;4189522;28;20293;-76
2023/07/24 07:06:19;;;;;;;5.33;3.30;;;23.20;99.90;;;;;;4187297;28;20237;-75
2023/07/24 07:08:22;;;;;;;4.70;3.33;;;23.40;99.90;;;;;;4194003;28;20223;-77
2023/07/24 07:10:24;;;;;;;6.17;2.97;;;23.50;99.90;;;;;;4192443;28;20213;-76
2023/07/24 07:12:26;;;;;;;4.70;2.80;;;23.70;99.90;;;;;;4193271;28;20308;-76
2023/07/24 07:14:28;;;;;;;5.87;3.50;;;23.80;99.90;;;;;;4187149;28;20253;-76
2023/07/24 07:16:30;;;;;;;6.13;3.27;;;23.80;99.90;;;;;;4190664;28;20762;-76
2023/07/24 07:18:32;;;;;;;4.47;2.97;;;23.90;99.90;;;;;;4189450;28;20244;-76
2023/07/24 07:20:34;;;;;;;6.47;4.13;;;24.00;99.90;;;;;;4196527;28;20254;-75
2023/07/24 07:22:36;;;;;;;6.00;3.80;;;24.00;99.90;;;;;;4193916;28;20573;-76
2023/07/24 07:24:39;;;;;;;5.50;3.60;;;24.00;99.90;;;;;;4203551;28;20206;-76
2023/07/24 07:26:41;;;;;;;6.00;3.33;;;24.10;99.90;;;;;;4197294;28;20230;-76
2023/07/24 07:28:44;;;;;;;5.77;3.50;;;24.10;99.90;;;;;;4188897;28;20592;-76
2023/07/24 07:30:48;;;;;;;6.73;3.70;;;24.10;99.90;;;;;;4197244;28;20210;-76
2023/07/24 07:32:50;;;;;;;5.10;3.20;;;24.20;99.90;;;;;;4196352;28;20214;-76
2023/07/24 07:34:52;;;;;;;6.60;3.37;;;24.30;99.90;;;;;;4191996;28;20253;-76
2023/07/24 07:36:54;;;;;;;5.77;3.60;;;24.40;99.90;;;;;;4200652;28;20271;-76
2023/07/24 07:38:56;;;;;;;8.37;3.47;;;24.50;99.90;;;;;;4190487;28;20214;-76
2023/07/24 07:40:59;;;;;;;6.23;3.80;;;24.50;99.90;;;;;;4189105;28;20271;-76
2023/07/24 07:43:01;;;;;;;5.90;3.60;;;24.60;99.90;;;;;;4184449;28;20829;-77
2023/07/24 07:45:04;;;;;;;10.67;3.80;;;24.80;99.90;;;;;;4198378;28;20308;-75
2023/07/24 07:47:06;;;;;;;5.50;3.43;;;24.80;99.90;;;;;;4187202;28;20661;-75
2023/07/24 07:49:08;;;;;;;6.73;3.73;;;24.90;99.90;;;;;;4183832;28;20379;-76
2023/07/24 07:51:10;;;;;;;5.50;3.47;;;25.00;99.90;;;;;;4194738;28;20202;-76
2023/07/24 07:53:15;;;;;;;6.00;3.43;;;25.10;99.90;;;;;;4191930;28;20206;-76
2023/07/24 07:55:17;;;;;;;5.77;3.67;;;25.10;96.10;;;;;;4194772;28;20202;-76
2023/07/24 07:57:20;;;;;;;7.50;3.50;;;25.10;94.70;;;;;;4188061;28;20234;-76
2023/07/24 07:59:22;;;;;;;6.57;3.60;;;25.10;94.60;;;;;;4193837;28;20241;-76
2023/07/24 08:01:24;;;;;;;5.90;3.37;;;25.20;93.50;;;;;;4204322;28;20630;-75
2023/07/24 08:03:26;;;;;;;6.90;3.33;;;25.30;92.50;;;;;;4191559;28;20312;-76
2023/07/24 08:05:29;;;;;;;6.73;3.37;;;25.30;93.70;;;;;;4192119;28;20255;-75
2023/07/24 08:07:32;;;;;;;8.90;3.97;;;25.40;94.30;;;;;;4196755;28;20572;-77
2023/07/24 08:09:34;;;;;;;5.43;3.50;;;25.40;94.20;;;;;;4203665;28;20212;-76
2023/07/24 08:11:36;;;;;;;5.23;3.53;;;25.40;92.40;;;;;;4186367;28;20202;-75
2023/07/24 08:13:39;;;;;;;5.77;3.67;;;25.50;97.80;;;;;;4186515;28;20253;-76
2023/07/24 08:15:41;;;;;;;6.17;3.97;;;25.50;94.10;;;;;;4186699;28;20207;-77
2023/07/24 08:17:43;;;;;;;5.67;3.97;;;25.50;93.50;;;;;;4203881;28;20237;-77
2023/07/24 08:19:45;;;;;;;5.63;3.50;;;25.50;97.00;;;;;;4196157;28;20234;-76
2023/07/24 08:21:48;;;;;;;5.47;3.77;;;25.40;95.00;;;;;;4193692;28;20213;-76
2023/07/24 08:23:50;;;;;;;5.10;3.53;;;25.50;95.40;;;;;;4191506;28;20226;-76
2023/07/24 08:25:53;;;;;;;6.87;4.00;;;25.50;94.70;;;;;;4196002;28;20349;-76
2023/07/24 08:27:55;;;;;;;6.33;3.90;;;25.50;92.40;;;;;;4188776;28;20302;-75
2023/07/24 08:29:58;;;;;;;6.83;4.20;;;25.60;92.80;;;;;;4190524;28;20221;-76
2023/07/24 08:32:00;;;;;;;7.37;3.70;;;25.60;97.90;;;;;;4185049;28;20206;-76
2023/07/24 08:34:02;;;;;;;5.93;3.63;;;25.70;97.80;;;;;;4189787;28;20200;-76
2023/07/24 08:36:06;;;;;;;4.90;3.40;;;25.70;90.70;;;;;;4202824;28;20283;-77
2023/07/24 08:38:08;;;;;;;6.70;3.73;;;25.80;91.50;;;;;;4195862;28;21012;-79
2023/07/24 08:40:11;;;;;;;6.73;3.67;;;25.80;89.80;;;;;;4190817;28;20205;-78
2023/07/24 08:42:14;;;;;;;8.17;3.60;;;25.90;88.60;;;;;;4187720;28;20279;-76
2023/07/24 08:44:16;;;;;;;5.77;3.60;;;25.90;88.00;;;;;;4197181;28;20221;-76
2023/07/24 08:46:20;;;;;;;7.60;3.60;;;25.90;85.60;;;;;;4188062;28;20225;-77
2023/07/24 08:48:23;;;;;;;5.27;3.43;;;25.90;82.70;;;;;;4198965;28;20654;-76
2023/07/24 08:50:27;;;;;;;6.63;3.57;;;25.80;84.00;;;;;;4193404;28;20836;-76
2023/07/24 08:52:29;;;;;;;9.83;3.70;;;25.80;86.80;;;;;;4188550;28;20267;-76
2023/07/24 08:54:32;;;;;;;7.43;3.87;;;25.80;86.80;;;;;;4197825;28;20368;-76
2023/07/24 08:56:34;;;;;;;7.83;3.83;;;25.80;92.10;;;;;;4189640;28;20237;-76
2023/07/24 08:58:36;;;;;;;6.60;3.27;;;25.70;85.20;;;;;;4189738;28;20214;-77
2023/07/24 09:00:39;;;;;;;5.77;3.40;;;25.80;84.60;;;;;;4187915;28;21129;-77
2023/07/24 09:02:43;;;;;;;5.83;3.57;;;25.90;88.30;;;;;;4193165;28;20242;-78
2023/07/24 09:04:44;;;;;;;5.33;3.40;;;25.90;90.10;;;;;;4194380;28;20210;-78
2023/07/24 09:06:46;;;;;;;6.37;3.30;;;26.00;83.40;;;;;;4203713;28;20246;-78
2023/07/24 09:08:48;;;;;;;6.07;3.53;;;26.10;80.30;;;;;;4197402;28;20245;-77
2023/07/24 09:10:52;;;;;;;5.10;3.03;;;26.20;76.50;;;;;;4189408;28;20574;-78
2023/07/24 09:12:53;;;;;;;4.60;3.20;;;26.30;74.60;;;;;;4188064;28;20217;-78
2023/07/24 09:15:03;;;;;;;6.00;3.50;;;26.40;74.60;;;;;;4184840;28;20210;-78
2023/07/24 09:17:07;;;;;;;5.97;3.57;;;26.60;75.30;;;;;;4195312;28;20233;-78
2023/07/24 09:19:18;;;;;;;5.00;3.43;;;26.70;72.30;;;;;;4192563;28;20300;-78
2023/07/24 09:21:29;;;;;;;8.37;4.40;;;26.80;71.20;;;;;;4190116;28;20284;-78
2023/07/24 09:23:31;;;;;;;6.10;3.57;;;26.80;75.50;;;;;;4190152;28;20321;-78
2023/07/24 09:25:33;;;;;;;5.43;3.60;;;26.70;75.40;;;;;;4191375;28;20297;-78
2023/07/24 09:27:38;;;;;;;6.80;3.17;;;26.80;68.50;;;;;;4193060;28;20225;-79
2023/07/24 09:29:40;;;;;;;4.80;3.20;;;26.80;70.50;;;;;;4198661;28;20214;-78
2023/07/24 09:31:43;;;;;;;7.30;4.00;;;26.80;70.20;;;;;;4199063;28;20273;-78
2023/07/24 09:33:45;;;;;;;4.87;3.37;;;26.90;70.30;;;;;;4197501;28;20213;-78
2023/07/24 09:35:58;;;;;;;5.00;3.47;;;27.10;69.20;;;;;;4188930;28;20851;-78
2023/07/24 09:38:05;;;;;;;5.40;3.53;;;27.20;69.80;;;;;;4193460;28;20678;-78
2023/07/24 09:40:08;;;;;;;6.33;3.77;;;27.30;65.30;;;;;;4193507;28;20571;-78
2023/07/24 09:42:09;;;;;;;6.53;3.60;;;27.30;66.60;;;;;;4195818;28;20232;-78
2023/07/24 09:44:13;;;;;;;5.87;3.83;;;27.30;64.50;;;;;;4194261;28;20225;-77
2023/07/24 09:46:15;;;;;;;6.90;4.20;;;27.40;63.70;;;;;;4184758;28;20678;-77
2023/07/24 09:48:18;;;;;;;6.53;3.80;;;27.50;62.10;;;;;;4185772;28;20207;-77
2023/07/24 09:50:21;;;;;;;5.40;3.80;;;27.50;61.80;;;;;;4193087;28;20198;-77
2023/07/24 09:52:28;;;;;;;5.17;3.70;;;27.60;64.20;;;;;;4186964;28;20210;-77
2023/07/24 09:54:40;;;;;;;10.07;4.20;;;27.60;70.00;;;;;;4191603;28;20210;-77
2023/07/24 09:56:46;;;;;;;9.50;4.60;;;27.50;66.80;;;;;;4186394;28;20226;-78
2023/07/24 09:58:55;;;;;;;7.60;4.27;;;27.60;67.00;;;;;;4187927;28;20209;-77
2023/07/24 10:00:58;;;;;;;7.03;4.20;;;27.60;63.10;;;;;;4190168;28;20673;-78
2023/07/24 10:03:00;;;;;;;8.30;4.80;;;27.60;66.50;;;;;;4187625;28;20202;-77
2023/07/24 10:05:02;;;;;;;10.80;5.10;;;27.40;65.60;;;;;;4187577;28;20230;-77
2023/07/24 10:07:06;;;;;;;6.20;4.43;;;27.50;62.60;;;;;;4189726;28;20229;-77
2023/07/24 10:09:09;;;;;;;6.37;4.63;;;27.50;64.80;;;;;;4189713;28;20216;-77
2023/07/24 10:11:13;;;;;;;7.73;4.70;;;27.50;63.80;;;;;;4189814;28;20206;-77
2023/07/24 10:13:15;;;;;;;6.77;4.50;;;27.50;64.70;;;;;;4188030;28;20295;-77
2023/07/24 10:15:18;;;;;;;9.00;5.10;;;27.60;62.60;;;;;;4185169;28;20934;-78
2023/07/24 10:17:36;;;;;;;8.30;4.47;;;27.70;63.10;;;;;;4188738;28;20658;-77
2023/07/24 10:19:42;;;;;;;7.40;4.40;;;27.70;66.60;;;;;;4186308;28;20229;-78
2023/07/24 10:21:47;;;;;;;9.70;4.47;;;27.80;64.60;;;;;;4186478;28;20466;-77
2023/07/24 10:23:50;;;;;;;8.13;4.75;;;27.90;61.60;;;;;;4188063;28;20246;-78
2023/07/24 10:25:55;;;;;;;8.57;5.35;;;27.90;64.40;;;;;;4189858;28;20265;-77
2023/07/24 10:28:02;;;;;;;9.13;5.07;;;28.00;63.50;;;;;;4187704;28;20659;-78
2023/07/24 10:30:07;;;;;;;9.50;5.60;;;28.00;62.30;;;;;;4190172;28;20206;-78
2023/07/24 10:32:18;;;;;;;7.90;4.97;;;28.10;65.90;;;;;;4187670;28;20570;-78
2023/07/24 10:34:21;;;;;;;7.83;4.57;;;28.10;67.10;;;;;;4186896;28;20208;-78
2023/07/24 10:36:26;;;;;;;8.18;5.18;;;28.20;62.60;;;;;;4186273;28;20284;-78
2023/07/24 10:38:35;;;;;;;8.38;5.22;;;28.20;62.50;;;;;;4191895;28;21081;-78